sensor_id;sensor_type;location;lat;lon;timestamp;temperature;humidity
48912;DHT22;34722;52.108;5.044;2022-12-07T00:01:09;4.50;99.90
48912;DHT22;34722;52.108;5.044;2022-12-07T00:03:36;4.70;99.90
48912;DHT22;34722;52.108;5.044;2022-12-07T00:06:04;4.70;99.90
48912;DHT22;34722;52.108;5.044;2022-12-07T00:08:31;4.70;99.90
48912;DHT22;34722;52.108;5.044;2022-12-07T00:11:04;4.60;99.90
48912;DHT22;34722;52.108;5.044;2022-12-07T00:13:30;4.60;99.90
48912;DHT22;34722;52.108;5.044;2022-12-07T00:15:59;4.50;99.90
48912;DHT22;34722;52.108;5.044;2022-12-07T00:18:25;4.40;99.90
48912;DHT22;34722;52.108;5.044;2022-12-07T00:20:50;4.30;99.90
48912;DHT22;34722;52.108;5.044;2022-12-07T00:23:16;4.20;99.90
48912;DHT22;34722;52.108;5.044;2022-12-07T00:25:41;4.10;99.90
48912;DHT22;34722;52.108;5.044;2022-12-07T00:28:07;4.00;99.90
48912;DHT22;34722;52.108;5.044;2022-12-07T00:30:34;3.90;99.90
48912;DHT22;34722;52.108;5.044;2022-12-07T00:33:00;3.80;99.90
48912;DHT22;34722;52.108;5.044;2022-12-07T00:35:25;3.80;99.90
48912;DHT22;34722;52.108;5.044;2022-12-07T00:37:51;3.80;99.90
48912;DHT22;34722;52.108;5.044;2022-12-07T00:40:17;3.70;99.90
48912;DHT22;34722;52.108;5.044;2022-12-07T00:42:42;3.70;99.90
48912;DHT22;34722;52.108;5.044;2022-12-07T00:45:08;3.60;99.90
48912;DHT22;34722;52.108;5.044;2022-12-07T00:47:34;3.40;99.90
48912;DHT22;34722;52.108;5.044;2022-12-07T00:50:00;3.30;99.90
48912;DHT22;34722;52.108;5.044;2022-12-07T00:52:25;3.20;99.90
48912;DHT22;34722;52.108;5.044;2022-12-07T00:54:51;3.20;99.90
48912;DHT22;34722;52.108;5.044;2022-12-07T00:57:16;3.10;99.90
48912;DHT22;34722;52.108;5.044;2022-12-07T00:59:42;3.30;99.90
48912;DHT22;34722;52.108;5.044;2022-12-07T01:02:08;3.40;99.90
48912;DHT22;34722;52.108;5.044;2022-12-07T01:04:34;3.50;99.90
48912;DHT22;34722;52.108;5.044;2022-12-07T01:07:00;3.50;99.90
48912;DHT22;34722;52.108;5.044;2022-12-07T01:09:25;3.60;99.90
48912;DHT22;34722;52.108;5.044;2022-12-07T01:11:51;3.40;99.90
48912;DHT22;34722;52.108;5.044;2022-12-07T01:14:18;3.40;99.90
48912;DHT22;34722;52.108;5.044;2022-12-07T01:16:44;3.20;99.90
48912;DHT22;34722;52.108;5.044;2022-12-07T01:19:09;3.00;99.90
48912;DHT22;34722;52.108;5.044;2022-12-07T01:21:35;3.00;99.90
48912;DHT22;34722;52.108;5.044;2022-12-07T01:24:04;3.10;99.90
48912;DHT22;34722;52.108;5.044;2022-12-07T01:26:30;3.10;99.90
48912;DHT22;34722;52.108;5.044;2022-12-07T01:28:56;3.10;99.90
48912;DHT22;34722;52.108;5.044;2022-12-07T01:31:25;3.10;99.90
48912;DHT22;34722;52.108;5.044;2022-12-07T01:33:56;3.10;99.90
48912;DHT22;34722;52.108;5.044;2022-12-07T01:36:28;3.10;99.90
48912;DHT22;34722;52.108;5.044;2022-12-07T01:38:57;3.00;99.90
48912;DHT22;34722;52.108;5.044;2022-12-07T01:41:25;3.00;99.90
48912;DHT22;34722;52.108;5.044;2022-12-07T01:46:37;3.00;99.90
48912;DHT22;34722;52.108;5.044;2022-12-07T01:49:10;3.00;99.90
48912;DHT22;34722;52.108;5.044;2022-12-07T01:51:37;2.90;99.90
48912;DHT22;34722;52.108;5.044;2022-12-07T01:54:04;2.80;99.90
48912;DHT22;34722;52.108;5.044;2022-12-07T01:56:29;2.90;99.90
48912;DHT22;34722;52.108;5.044;2022-12-07T01:58:57;3.10;99.90
48912;DHT22;34722;52.108;5.044;2022-12-07T02:01:25;3.40;99.90
48912;DHT22;34722;52.108;5.044;2022-12-07T02:03:50;3.60;99.90
48912;DHT22;34722;52.108;5.044;2022-12-07T02:06:19;3.90;99.90
48912;DHT22;34722;52.108;5.044;2022-12-07T02:08:46;4.00;99.90
48912;DHT22;34722;52.108;5.044;2022-12-07T02:11:12;4.20;99.90
48912;DHT22;34722;52.108;5.044;2022-12-07T02:13:40;4.20;99.90
48912;DHT22;34722;52.108;5.044;2022-12-07T02:30:00;4.20;99.90
48912;DHT22;34722;52.108;5.044;2022-12-07T02:38:27;4.00;99.90
48912;DHT22;34722;52.108;5.044;2022-12-07T02:43:40;3.50;99.90
48912;DHT22;34722;52.108;5.044;2022-12-07T02:46:11;3.40;99.90
48912;DHT22;34722;52.108;5.044;2022-12-07T02:48:38;3.20;99.90
48912;DHT22;34722;52.108;5.044;2022-12-07T02:51:05;3.00;99.90
48912;DHT22;34722;52.108;5.044;2022-12-07T02:53:39;2.90;99.90
48912;DHT22;34722;52.108;5.044;2022-12-07T02:56:39;2.80;99.90
48912;DHT22;34722;52.108;5.044;2022-12-07T03:10:28;2.50;99.90
48912;DHT22;34722;52.108;5.044;2022-12-07T03:15:25;2.20;99.90
48912;DHT22;34722;52.108;5.044;2022-12-07T03:17:53;2.20;99.90
48912;DHT22;34722;52.108;5.044;2022-12-07T03:20:22;2.10;99.90
48912;DHT22;34722;52.108;5.044;2022-12-07T03:22:49;2.00;99.90
48912;DHT22;34722;52.108;5.044;2022-12-07T03:25:17;2.00;99.90
48912;DHT22;34722;52.108;5.044;2022-12-07T03:28:04;1.90;99.90
48912;DHT22;34722;52.108;5.044;2022-12-07T03:30:47;1.90;99.90
48912;DHT22;34722;52.108;5.044;2022-12-07T03:33:31;1.90;99.90
48912;DHT22;34722;52.108;5.044;2022-12-07T03:36:03;1.90;99.90
48912;DHT22;34722;52.108;5.044;2022-12-07T03:38:40;1.90;99.90
48912;DHT22;34722;52.108;5.044;2022-12-07T03:41:29;1.80;99.90
48912;DHT22;34722;52.108;5.044;2022-12-07T03:43:55;1.80;99.90
48912;DHT22;34722;52.108;5.044;2022-12-07T03:49:26;1.70;99.90
48912;DHT22;34722;52.108;5.044;2022-12-07T03:52:16;1.70;99.90
48912;DHT22;34722;52.108;5.044;2022-12-07T03:57:10;1.70;99.90
48912;DHT22;34722;52.108;5.044;2022-12-07T03:59:37;1.70;99.90
48912;DHT22;34722;52.108;5.044;2022-12-07T04:02:05;1.80;99.90
48912;DHT22;34722;52.108;5.044;2022-12-07T04:04:31;1.70;99.90
48912;DHT22;34722;52.108;5.044;2022-12-07T04:06:57;1.80;99.90
48912;DHT22;34722;52.108;5.044;2022-12-07T04:09:23;1.80;99.90
48912;DHT22;34722;52.108;5.044;2022-12-07T04:11:49;1.80;99.90
48912;DHT22;34722;52.108;5.044;2022-12-07T04:14:14;1.90;99.90
48912;DHT22;34722;52.108;5.044;2022-12-07T04:16:50;1.90;99.90
48912;DHT22;34722;52.108;5.044;2022-12-07T04:19:17;1.90;99.90
48912;DHT22;34722;52.108;5.044;2022-12-07T04:21:43;1.90;99.90
48912;DHT22;34722;52.108;5.044;2022-12-07T04:24:09;1.80;99.90
48912;DHT22;34722;52.108;5.044;2022-12-07T04:26:35;1.80;99.90
48912;DHT22;34722;52.108;5.044;2022-12-07T04:29:00;1.70;99.90
48912;DHT22;34722;52.108;5.044;2022-12-07T04:31:26;1.60;99.90
48912;DHT22;34722;52.108;5.044;2022-12-07T04:33:52;1.50;99.90
48912;DHT22;34722;52.108;5.044;2022-12-07T04:36:17;1.50;99.90
48912;DHT22;34722;52.108;5.044;2022-12-07T04:38:45;1.50;99.90
48912;DHT22;34722;52.108;5.044;2022-12-07T04:41:10;1.60;99.90
48912;DHT22;34722;52.108;5.044;2022-12-07T04:43:36;1.60;99.90
48912;DHT22;34722;52.108;5.044;2022-12-07T04:46:02;1.60;99.90
48912;DHT22;34722;52.108;5.044;2022-12-07T04:48:28;1.60;99.90
48912;DHT22;34722;52.108;5.044;2022-12-07T04:50:54;1.60;99.90
48912;DHT22;34722;52.108;5.044;2022-12-07T04:53:19;1.60;99.90
48912;DHT22;34722;52.108;5.044;2022-12-07T04:55:45;1.60;99.90
48912;DHT22;34722;52.108;5.044;2022-12-07T04:58:12;1.50;99.90
48912;DHT22;34722;52.108;5.044;2022-12-07T05:00:38;1.50;99.90
48912;DHT22;34722;52.108;5.044;2022-12-07T05:03:04;1.50;99.90
48912;DHT22;34722;52.108;5.044;2022-12-07T05:05:30;1.40;99.90
48912;DHT22;34722;52.108;5.044;2022-12-07T05:07:56;1.40;99.90
48912;DHT22;34722;52.108;5.044;2022-12-07T05:10:21;1.50;99.90
48912;DHT22;34722;52.108;5.044;2022-12-07T05:12:47;1.60;99.90
48912;DHT22;34722;52.108;5.044;2022-12-07T05:15:14;1.70;99.90
48912;DHT22;34722;52.108;5.044;2022-12-07T05:17:40;1.90;99.90
48912;DHT22;34722;52.108;5.044;2022-12-07T05:20:06;1.90;99.90
48912;DHT22;34722;52.108;5.044;2022-12-07T05:22:32;1.90;99.90
48912;DHT22;34722;52.108;5.044;2022-12-07T05:24:58;1.90;99.90
48912;DHT22;34722;52.108;5.044;2022-12-07T05:27:23;1.80;99.90
48912;DHT22;34722;52.108;5.044;2022-12-07T05:29:50;1.80;99.90
48912;DHT22;34722;52.108;5.044;2022-12-07T05:32:16;1.90;99.90
48912;DHT22;34722;52.108;5.044;2022-12-07T05:34:42;2.00;99.90
48912;DHT22;34722;52.108;5.044;2022-12-07T05:37:07;2.10;99.90
48912;DHT22;34722;52.108;5.044;2022-12-07T05:39:33;2.30;99.90
48912;DHT22;34722;52.108;5.044;2022-12-07T05:41:58;2.40;99.90
48912;DHT22;34722;52.108;5.044;2022-12-07T05:44:44;2.40;99.90
48912;DHT22;34722;52.108;5.044;2022-12-07T05:47:12;2.50;99.90
48912;DHT22;34722;52.108;5.044;2022-12-07T05:49:37;2.50;99.90
48912;DHT22;34722;52.108;5.044;2022-12-07T06:58:59;2.50;99.90
48912;DHT22;34722;52.108;5.044;2022-12-07T07:01:29;2.60;99.90
48912;DHT22;34722;52.108;5.044;2022-12-07T07:04:07;2.80;99.90
48912;DHT22;34722;52.108;5.044;2022-12-07T07:06:48;2.80;99.90
48912;DHT22;34722;52.108;5.044;2022-12-07T07:09:17;2.90;99.90
48912;DHT22;34722;52.108;5.044;2022-12-07T07:11:46;2.80;99.90
48912;DHT22;34722;52.108;5.044;2022-12-07T07:14:23;2.70;99.90
48912;DHT22;34722;52.108;5.044;2022-12-07T07:16:58;2.60;99.90
48912;DHT22;34722;52.108;5.044;2022-12-07T07:19:24;2.60;99.90
48912;DHT22;34722;52.108;5.044;2022-12-07T07:21:49;2.50;99.90
48912;DHT22;34722;52.108;5.044;2022-12-07T07:24:15;2.40;99.90
48912;DHT22;34722;52.108;5.044;2022-12-07T07:26:41;2.30;99.90
48912;DHT22;34722;52.108;5.044;2022-12-07T07:29:15;2.10;99.90
48912;DHT22;34722;52.108;5.044;2022-12-07T07:31:42;2.00;99.90
48912;DHT22;34722;52.108;5.044;2022-12-07T07:34:08;1.90;99.90
48912;DHT22;34722;52.108;5.044;2022-12-07T07:36:37;1.90;99.90
48912;DHT22;34722;52.108;5.044;2022-12-07T07:39:13;1.80;99.90
48912;DHT22;34722;52.108;5.044;2022-12-07T07:41:42;1.90;99.90
48912;DHT22;34722;52.108;5.044;2022-12-07T07:44:10;1.90;99.90
48912;DHT22;34722;52.108;5.044;2022-12-07T07:46:36;1.90;99.90
48912;DHT22;34722;52.108;5.044;2022-12-07T07:49:03;2.00;99.90
48912;DHT22;34722;52.108;5.044;2022-12-07T07:51:28;1.90;99.90
48912;DHT22;34722;52.108;5.044;2022-12-07T07:53:54;2.00;99.90
48912;DHT22;34722;52.108;5.044;2022-12-07T07:56:20;1.90;99.90
48912;DHT22;34722;52.108;5.044;2022-12-07T07:58:52;1.90;99.90
48912;DHT22;34722;52.108;5.044;2022-12-07T08:01:21;1.90;99.90
48912;DHT22;34722;52.108;5.044;2022-12-07T08:03:47;1.90;99.90
48912;DHT22;34722;52.108;5.044;2022-12-07T08:06:18;1.90;99.90
48912;DHT22;34722;52.108;5.044;2022-12-07T08:08:44;2.00;99.90
48912;DHT22;34722;52.108;5.044;2022-12-07T08:11:13;2.10;99.90
48912;DHT22;34722;52.108;5.044;2022-12-07T08:13:39;2.30;99.90
48912;DHT22;34722;52.108;5.044;2022-12-07T08:16:10;2.40;99.90
48912;DHT22;34722;52.108;5.044;2022-12-07T08:18:48;2.50;99.90
48912;DHT22;34722;52.108;5.044;2022-12-07T08:21:23;2.50;99.90
48912;DHT22;34722;52.108;5.044;2022-12-07T08:23:49;2.50;99.90
48912;DHT22;34722;52.108;5.044;2022-12-07T08:26:16;2.60;99.90
48912;DHT22;34722;52.108;5.044;2022-12-07T08:28:45;2.80;99.90
48912;DHT22;34722;52.108;5.044;2022-12-07T08:31:17;3.20;99.90
48912;DHT22;34722;52.108;5.044;2022-12-07T08:33:46;3.90;99.90
48912;DHT22;34722;52.108;5.044;2022-12-07T08:36:12;4.40;99.90
48912;DHT22;34722;52.108;5.044;2022-12-07T08:38:40;4.60;99.90
48912;DHT22;34722;52.108;5.044;2022-12-07T08:41:06;4.60;99.90
48912;DHT22;34722;52.108;5.044;2022-12-07T08:43:32;4.60;99.90
48912;DHT22;34722;52.108;5.044;2022-12-07T08:48:45;4.50;99.90
48912;DHT22;34722;52.108;5.044;2022-12-07T08:51:19;4.70;99.90
48912;DHT22;34722;52.108;5.044;2022-12-07T08:53:45;4.80;99.90
48912;DHT22;34722;52.108;5.044;2022-12-07T08:56:11;4.80;99.90
48912;DHT22;34722;52.108;5.044;2022-12-07T08:58:50;4.90;99.90
48912;DHT22;34722;52.108;5.044;2022-12-07T09:01:16;4.90;99.90
48912;DHT22;34722;52.108;5.044;2022-12-07T09:03:42;4.80;99.90
48912;DHT22;34722;52.108;5.044;2022-12-07T09:06:26;4.80;99.90
48912;DHT22;34722;52.108;5.044;2022-12-07T09:08:56;4.90;99.90
48912;DHT22;34722;52.108;5.044;2022-12-07T09:11:35;5.20;99.90
48912;DHT22;34722;52.108;5.044;2022-12-07T09:14:01;5.60;99.90
48912;DHT22;34722;52.108;5.044;2022-12-07T09:16:29;5.80;99.90
48912;DHT22;34722;52.108;5.044;2022-12-07T09:18:55;6.00;99.90
48912;DHT22;34722;52.108;5.044;2022-12-07T09:21:24;6.00;99.90
48912;DHT22;34722;52.108;5.044;2022-12-07T09:23:49;6.00;99.90
48912;DHT22;34722;52.108;5.044;2022-12-07T09:26:15;6.10;99.90
48912;DHT22;34722;52.108;5.044;2022-12-07T09:28:41;6.10;99.90
48912;DHT22;34722;52.108;5.044;2022-12-07T09:31:07;6.10;99.90
48912;DHT22;34722;52.108;5.044;2022-12-07T09:33:33;6.30;99.90
48912;DHT22;34722;52.108;5.044;2022-12-07T09:35:59;6.40;99.90
48912;DHT22;34722;52.108;5.044;2022-12-07T09:38:24;6.50;99.90
48912;DHT22;34722;52.108;5.044;2022-12-07T09:40:52;6.40;99.90
48912;DHT22;34722;52.108;5.044;2022-12-07T09:43:22;6.10;99.90
48912;DHT22;34722;52.108;5.044;2022-12-07T09:45:52;5.90;99.90
48912;DHT22;34722;52.108;5.044;2022-12-07T09:48:33;5.90;99.90
48912;DHT22;34722;52.108;5.044;2022-12-07T09:51:03;5.90;99.90
48912;DHT22;34722;52.108;5.044;2022-12-07T09:53:37;5.90;99.90
48912;DHT22;34722;52.108;5.044;2022-12-07T09:56:04;5.80;99.90
48912;DHT22;34722;52.108;5.044;2022-12-07T09:58:43;5.70;99.90
48912;DHT22;34722;52.108;5.044;2022-12-07T10:01:15;5.70;99.90
48912;DHT22;34722;52.108;5.044;2022-12-07T10:03:55;5.90;99.90
48912;DHT22;34722;52.108;5.044;2022-12-07T10:06:24;6.20;99.90
48912;DHT22;34722;52.108;5.044;2022-12-07T10:08:50;6.50;99.90
48912;DHT22;34722;52.108;5.044;2022-12-07T10:11:15;6.60;99.90
48912;DHT22;34722;52.108;5.044;2022-12-07T10:13:53;6.60;99.90
48912;DHT22;34722;52.108;5.044;2022-12-07T10:16:28;6.60;99.90
48912;DHT22;34722;52.108;5.044;2022-12-07T10:22:13;6.40;99.90
48912;DHT22;34722;52.108;5.044;2022-12-07T10:24:40;6.50;99.90
48912;DHT22;34722;52.108;5.044;2022-12-07T10:27:26;6.60;99.90
48912;DHT22;34722;52.108;5.044;2022-12-07T10:29:54;6.90;99.90
48912;DHT22;34722;52.108;5.044;2022-12-07T10:32:36;7.10;99.90
48912;DHT22;34722;52.108;5.044;2022-12-07T10:35:24;7.40;99.90
48912;DHT22;34722;52.108;5.044;2022-12-07T10:38:00;7.40;99.90
48912;DHT22;34722;52.108;5.044;2022-12-07T10:43:18;7.30;99.90
48912;DHT22;34722;52.108;5.044;2022-12-07T10:55:22;6.70;99.90
48912;DHT22;34722;52.108;5.044;2022-12-07T11:04:21;6.50;99.90
48912;DHT22;34722;52.108;5.044;2022-12-07T11:18:29;6.90;99.90
48912;DHT22;34722;52.108;5.044;2022-12-07T11:21:20;7.10;99.90
48912;DHT22;34722;52.108;5.044;2022-12-07T11:24:10;7.30;99.90
48912;DHT22;34722;52.108;5.044;2022-12-07T11:26:56;7.40;99.90
48912;DHT22;34722;52.108;5.044;2022-12-07T11:30:03;7.60;99.90
48912;DHT22;34722;52.108;5.044;2022-12-07T11:38:07;7.70;99.90
48912;DHT22;34722;52.108;5.044;2022-12-07T11:40:35;7.60;99.90
48912;DHT22;34722;52.108;5.044;2022-12-07T11:43:31;7.40;99.90
48912;DHT22;34722;52.108;5.044;2022-12-07T11:46:06;7.20;99.90
48912;DHT22;34722;52.108;5.044;2022-12-07T11:51:45;6.80;99.90
48912;DHT22;34722;52.108;5.044;2022-12-07T11:54:19;6.60;99.90
48912;DHT22;34722;52.108;5.044;2022-12-07T12:00:25;6.30;99.90
48912;DHT22;34722;52.108;5.044;2022-12-07T12:03:12;6.10;99.90
48912;DHT22;34722;52.108;5.044;2022-12-07T12:05:40;6.00;99.90
48912;DHT22;34722;52.108;5.044;2022-12-07T12:08:35;6.10;99.90
48912;DHT22;34722;52.108;5.044;2022-12-07T12:11:31;6.20;99.90
48912;DHT22;34722;52.108;5.044;2022-12-07T12:23:52;6.80;99.90
48912;DHT22;34722;52.108;5.044;2022-12-07T12:26:33;6.90;99.90
48912;DHT22;34722;52.108;5.044;2022-12-07T12:29:24;6.90;99.90
48912;DHT22;34722;52.108;5.044;2022-12-07T12:32:16;6.90;99.90
48912;DHT22;34722;52.108;5.044;2022-12-07T12:38:32;6.70;99.90
48912;DHT22;34722;52.108;5.044;2022-12-07T12:41:02;6.40;99.90
48912;DHT22;34722;52.108;5.044;2022-12-07T12:43:50;6.30;99.90
48912;DHT22;34722;52.108;5.044;2022-12-07T12:46:38;6.10;99.90
48912;DHT22;34722;52.108;5.044;2022-12-07T12:51:56;5.80;99.90
48912;DHT22;34722;52.108;5.044;2022-12-07T12:54:29;5.70;99.90
48912;DHT22;34722;52.108;5.044;2022-12-07T12:57:20;5.70;99.90
48912;DHT22;34722;52.108;5.044;2022-12-07T13:02:28;5.80;99.90
48912;DHT22;34722;52.108;5.044;2022-12-07T13:10:30;5.80;99.90
48912;DHT22;34722;52.108;5.044;2022-12-07T13:15:45;5.90;99.90
48912;DHT22;34722;52.108;5.044;2022-12-07T13:18:35;6.00;99.90
48912;DHT22;34722;52.108;5.044;2022-12-07T13:21:39;6.20;99.90
48912;DHT22;34722;52.108;5.044;2022-12-07T13:34:29;6.40;99.90
48912;DHT22;34722;52.108;5.044;2022-12-07T13:36:58;6.00;99.90
48912;DHT22;34722;52.108;5.044;2022-12-07T13:39:28;5.70;99.90
48912;DHT22;34722;52.108;5.044;2022-12-07T13:41:59;5.50;99.90
48912;DHT22;34722;52.108;5.044;2022-12-07T13:44:34;5.30;99.90
48912;DHT22;34722;52.108;5.044;2022-12-07T13:50:42;5.20;99.90
48912;DHT22;34722;52.108;5.044;2022-12-07T13:53:15;5.20;99.90
48912;DHT22;34722;52.108;5.044;2022-12-07T13:55:46;5.20;99.90
48912;DHT22;34722;52.108;5.044;2022-12-07T13:58:13;5.20;99.90
48912;DHT22;34722;52.108;5.044;2022-12-07T14:00:40;5.30;99.90
48912;DHT22;34722;52.108;5.044;2022-12-07T14:05:42;5.50;99.90
48912;DHT22;34722;52.108;5.044;2022-12-07T14:10:39;5.60;99.90
48912;DHT22;34722;52.108;5.044;2022-12-07T14:13:30;5.60;99.90
48912;DHT22;34722;52.108;5.044;2022-12-07T14:15:56;5.50;99.90
48912;DHT22;34722;52.108;5.044;2022-12-07T14:18:40;5.50;99.90
48912;DHT22;34722;52.108;5.044;2022-12-07T14:21:16;5.50;99.90
48912;DHT22;34722;52.108;5.044;2022-12-07T14:24:11;5.50;99.90
48912;DHT22;34722;52.108;5.044;2022-12-07T14:26:40;5.50;99.90
48912;DHT22;34722;52.108;5.044;2022-12-07T14:31:52;5.40;99.90
48912;DHT22;34722;52.108;5.044;2022-12-07T14:34:23;5.30;99.90
48912;DHT22;34722;52.108;5.044;2022-12-07T14:36:52;5.30;99.90
48912;DHT22;34722;52.108;5.044;2022-12-07T14:39:19;5.30;99.90
48912;DHT22;34722;52.108;5.044;2022-12-07T14:41:54;5.30;99.90
48912;DHT22;34722;52.108;5.044;2022-12-07T14:44:22;5.20;99.90
48912;DHT22;34722;52.108;5.044;2022-12-07T14:46:50;5.20;99.90
48912;DHT22;34722;52.108;5.044;2022-12-07T14:49:20;5.20;99.90
48912;DHT22;34722;52.108;5.044;2022-12-07T14:51:59;5.20;99.90
48912;DHT22;34722;52.108;5.044;2022-12-07T14:54:39;5.10;99.90
48912;DHT22;34722;52.108;5.044;2022-12-07T14:57:15;5.00;99.90
48912;DHT22;34722;52.108;5.044;2022-12-07T14:59:58;5.00;99.90
48912;DHT22;34722;52.108;5.044;2022-12-07T15:02:25;5.00;99.90
48912;DHT22;34722;52.108;5.044;2022-12-07T15:05:11;4.90;99.90
48912;DHT22;34722;52.108;5.044;2022-12-07T15:07:41;4.90;99.90
48912;DHT22;34722;52.108;5.044;2022-12-07T15:10:37;4.80;99.90
48912;DHT22;34722;52.108;5.044;2022-12-07T15:13:09;4.70;99.90
48912;DHT22;34722;52.108;5.044;2022-12-07T15:16:04;4.70;99.90
48912;DHT22;34722;52.108;5.044;2022-12-07T15:18:34;4.60;99.90
48912;DHT22;34722;52.108;5.044;2022-12-07T15:21:00;4.60;99.90
48912;DHT22;34722;52.108;5.044;2022-12-07T15:23:40;4.50;99.90
48912;DHT22;34722;52.108;5.044;2022-12-07T15:26:10;4.50;99.90
48912;DHT22;34722;52.108;5.044;2022-12-07T15:28:52;4.50;99.90
48912;DHT22;34722;52.108;5.044;2022-12-07T15:31:29;4.50;99.90
48912;DHT22;34722;52.108;5.044;2022-12-07T15:33:55;4.70;99.90
48912;DHT22;34722;52.108;5.044;2022-12-07T15:36:25;4.70;99.90
48912;DHT22;34722;52.108;5.044;2022-12-07T15:39:00;4.70;99.90
48912;DHT22;34722;52.108;5.044;2022-12-07T15:41:30;4.60;99.90
48912;DHT22;34722;52.108;5.044;2022-12-07T15:43:56;4.60;99.90
48912;DHT22;34722;52.108;5.044;2022-12-07T15:46:41;4.60;99.90
48912;DHT22;34722;52.108;5.044;2022-12-07T15:49:14;4.50;99.90
48912;DHT22;34722;52.108;5.044;2022-12-07T15:51:43;4.40;99.90
48912;DHT22;34722;52.108;5.044;2022-12-07T15:54:22;4.40;99.90
48912;DHT22;34722;52.108;5.044;2022-12-07T15:56:48;4.40;99.90
48912;DHT22;34722;52.108;5.044;2022-12-07T15:59:14;4.30;99.90
48912;DHT22;34722;52.108;5.044;2022-12-07T16:01:40;4.40;99.90
48912;DHT22;34722;52.108;5.044;2022-12-07T16:04:06;4.40;99.90
48912;DHT22;34722;52.108;5.044;2022-12-07T16:06:32;4.40;99.90
48912;DHT22;34722;52.108;5.044;2022-12-07T16:08:58;4.40;99.90
48912;DHT22;34722;52.108;5.044;2022-12-07T16:11:24;4.40;99.90
48912;DHT22;34722;52.108;5.044;2022-12-07T16:13:50;4.40;99.90
48912;DHT22;34722;52.108;5.044;2022-12-07T16:16:17;4.40;99.90
48912;DHT22;34722;52.108;5.044;2022-12-07T16:18:48;4.40;99.90
48912;DHT22;34722;52.108;5.044;2022-12-07T16:21:15;4.30;99.90
48912;DHT22;34722;52.108;5.044;2022-12-07T16:23:42;4.20;99.90
48912;DHT22;34722;52.108;5.044;2022-12-07T16:26:11;4.20;99.90
48912;DHT22;34722;52.108;5.044;2022-12-07T16:28:38;4.20;99.90
48912;DHT22;34722;52.108;5.044;2022-12-07T16:31:06;4.10;99.90
48912;DHT22;34722;52.108;5.044;2022-12-07T16:33:40;4.10;99.90
48912;DHT22;34722;52.108;5.044;2022-12-07T16:36:08;4.10;99.90
48912;DHT22;34722;52.108;5.044;2022-12-07T16:38:34;4.00;99.90
48912;DHT22;34722;52.108;5.044;2022-12-07T16:41:01;4.00;99.90
48912;DHT22;34722;52.108;5.044;2022-12-07T16:43:27;4.00;99.90
48912;DHT22;34722;52.108;5.044;2022-12-07T16:45:53;3.90;99.90
48912;DHT22;34722;52.108;5.044;2022-12-07T16:48:19;4.00;99.90
48912;DHT22;34722;52.108;5.044;2022-12-07T16:50:45;3.90;99.90
48912;DHT22;34722;52.108;5.044;2022-12-07T16:53:12;3.90;99.90
48912;DHT22;34722;52.108;5.044;2022-12-07T16:55:40;3.90;99.90
48912;DHT22;34722;52.108;5.044;2022-12-07T16:58:06;3.80;99.90
48912;DHT22;34722;52.108;5.044;2022-12-07T17:00:33;3.90;99.90
48912;DHT22;34722;52.108;5.044;2022-12-07T17:03:02;3.90;99.90
48912;DHT22;34722;52.108;5.044;2022-12-07T17:05:41;3.90;99.90
48912;DHT22;34722;52.108;5.044;2022-12-07T17:08:15;3.80;99.90
48912;DHT22;34722;52.108;5.044;2022-12-07T17:14:38;3.90;99.90
48912;DHT22;34722;52.108;5.044;2022-12-07T17:17:45;3.90;99.90
48912;DHT22;34722;52.108;5.044;2022-12-07T17:20:13;4.00;99.90
48912;DHT22;34722;52.108;5.044;2022-12-07T17:22:42;4.00;99.90
48912;DHT22;34722;52.108;5.044;2022-12-07T17:25:12;4.00;99.90
48912;DHT22;34722;52.108;5.044;2022-12-07T17:27:38;4.00;99.90
48912;DHT22;34722;52.108;5.044;2022-12-07T17:30:15;4.00;99.90
48912;DHT22;34722;52.108;5.044;2022-12-07T17:32:44;4.10;99.90
48912;DHT22;34722;52.108;5.044;2022-12-07T17:35:10;4.00;99.90
48912;DHT22;34722;52.108;5.044;2022-12-07T17:37:36;4.00;99.90
48912;DHT22;34722;52.108;5.044;2022-12-07T17:40:06;4.10;99.90
48912;DHT22;34722;52.108;5.044;2022-12-07T17:42:35;4.10;99.90
48912;DHT22;34722;52.108;5.044;2022-12-07T17:45:03;4.10;99.90
48912;DHT22;34722;52.108;5.044;2022-12-07T17:47:32;4.10;99.90
48912;DHT22;34722;52.108;5.044;2022-12-07T17:50:22;4.10;99.90
48912;DHT22;34722;52.108;5.044;2022-12-07T17:54:10;4.10;99.90
48912;DHT22;34722;52.108;5.044;2022-12-07T17:56:14;4.10;99.90
48912;DHT22;34722;52.108;5.044;2022-12-07T17:58:42;4.00;99.90
48912;DHT22;34722;52.108;5.044;2022-12-07T18:01:09;4.00;99.90
48912;DHT22;34722;52.108;5.044;2022-12-07T18:03:35;4.10;99.90
48912;DHT22;34722;52.108;5.044;2022-12-07T18:06:00;4.10;99.90
48912;DHT22;34722;52.108;5.044;2022-12-07T18:08:33;4.10;99.90
48912;DHT22;34722;52.108;5.044;2022-12-07T18:10:59;4.20;99.90
48912;DHT22;34722;52.108;5.044;2022-12-07T18:13:25;4.20;99.90
48912;DHT22;34722;52.108;5.044;2022-12-07T18:16:01;4.20;99.90
48912;DHT22;34722;52.108;5.044;2022-12-07T18:18:27;4.20;99.90
48912;DHT22;34722;52.108;5.044;2022-12-07T18:20:52;4.20;99.90
48912;DHT22;34722;52.108;5.044;2022-12-07T18:23:21;4.20;99.90
48912;DHT22;34722;52.108;5.044;2022-12-07T18:25:49;4.20;99.90
48912;DHT22;34722;52.108;5.044;2022-12-07T18:28:15;4.20;99.90
48912;DHT22;34722;52.108;5.044;2022-12-07T18:30:41;4.30;99.90
48912;DHT22;34722;52.108;5.044;2022-12-07T18:33:07;4.30;99.90
48912;DHT22;34722;52.108;5.044;2022-12-07T18:35:33;4.30;99.90
48912;DHT22;34722;52.108;5.044;2022-12-07T18:38:18;4.30;99.90
48912;DHT22;34722;52.108;5.044;2022-12-07T18:40:44;4.40;99.90
48912;DHT22;34722;52.108;5.044;2022-12-07T18:43:11;4.40;99.90
48912;DHT22;34722;52.108;5.044;2022-12-07T18:45:41;4.30;99.90
48912;DHT22;34722;52.108;5.044;2022-12-07T18:48:09;4.30;99.90
48912;DHT22;34722;52.108;5.044;2022-12-07T18:50:35;4.30;99.90
48912;DHT22;34722;52.108;5.044;2022-12-07T18:53:04;4.30;99.90
48912;DHT22;34722;52.108;5.044;2022-12-07T18:55:31;4.20;99.90
48912;DHT22;34722;52.108;5.044;2022-12-07T18:57:57;4.30;99.90
48912;DHT22;34722;52.108;5.044;2022-12-07T19:00:25;4.30;99.90
48912;DHT22;34722;52.108;5.044;2022-12-07T19:02:53;4.30;99.90
48912;DHT22;34722;52.108;5.044;2022-12-07T19:05:19;4.30;99.90
48912;DHT22;34722;52.108;5.044;2022-12-07T19:07:48;4.30;99.90
48912;DHT22;34722;52.108;5.044;2022-12-07T19:10:17;4.40;99.90
48912;DHT22;34722;52.108;5.044;2022-12-07T19:12:43;4.40;99.90
48912;DHT22;34722;52.108;5.044;2022-12-07T19:15:11;4.40;99.90
48912;DHT22;34722;52.108;5.044;2022-12-07T19:17:37;4.40;99.90
48912;DHT22;34722;52.108;5.044;2022-12-07T19:20:05;4.40;99.90
48912;DHT22;34722;52.108;5.044;2022-12-07T19:22:35;4.40;99.90
48912;DHT22;34722;52.108;5.044;2022-12-07T19:25:01;4.30;99.90
48912;DHT22;34722;52.108;5.044;2022-12-07T19:27:28;4.30;99.90
48912;DHT22;34722;52.108;5.044;2022-12-07T19:29:54;4.20;99.90
48912;DHT22;34722;52.108;5.044;2022-12-07T19:32:20;4.20;99.90
48912;DHT22;34722;52.108;5.044;2022-12-07T19:34:46;4.10;99.90
48912;DHT22;34722;52.108;5.044;2022-12-07T19:37:13;4.10;99.90
48912;DHT22;34722;52.108;5.044;2022-12-07T19:39:40;4.10;99.90